sensor_id;sensor_type;location;lat;lon;timestamp;temperature;humidity
52471;DHT22;38382;53.160;7.026;2024-02-23T00:00:06;5.10;99.90
52471;DHT22;38382;53.160;7.026;2024-02-23T00:02:32;5.10;99.90
52471;DHT22;38382;53.160;7.026;2024-02-23T00:04:57;5.10;99.90
52471;DHT22;38382;53.160;7.026;2024-02-23T00:07:23;5.10;99.90
52471;DHT22;38382;53.160;7.026;2024-02-23T00:09:49;5.10;99.90
52471;DHT22;38382;53.160;7.026;2024-02-23T00:12:14;5.00;99.90
52471;DHT22;38382;53.160;7.026;2024-02-23T00:14:40;5.00;99.90
52471;DHT22;38382;53.160;7.026;2024-02-23T00:17:06;5.00;99.90
52471;DHT22;38382;53.160;7.026;2024-02-23T00:19:32;5.10;99.90
52471;DHT22;38382;53.160;7.026;2024-02-23T00:21:58;4.90;99.90
52471;DHT22;38382;53.160;7.026;2024-02-23T00:24:27;4.90;99.90
52471;DHT22;38382;53.160;7.026;2024-02-23T00:26:54;4.90;99.90
52471;DHT22;38382;53.160;7.026;2024-02-23T00:29:20;4.90;99.90
52471;DHT22;38382;53.160;7.026;2024-02-23T00:31:47;4.90;99.90
52471;DHT22;38382;53.160;7.026;2024-02-23T00:34:13;4.90;99.90
52471;DHT22;38382;53.160;7.026;2024-02-23T00:36:41;5.60;99.90
52471;DHT22;38382;53.160;7.026;2024-02-23T00:39:07;4.80;99.90
52471;DHT22;38382;53.160;7.026;2024-02-23T00:41:34;4.80;99.90
52471;DHT22;38382;53.160;7.026;2024-02-23T00:44:00;4.90;99.90
52471;DHT22;38382;53.160;7.026;2024-02-23T00:46:25;4.90;99.90
52471;DHT22;38382;53.160;7.026;2024-02-23T00:48:51;4.90;99.90
52471;DHT22;38382;53.160;7.026;2024-02-23T00:51:17;5.20;99.90
52471;DHT22;38382;53.160;7.026;2024-02-23T00:53:43;5.20;99.90
52471;DHT22;38382;53.160;7.026;2024-02-23T00:56:09;5.30;99.90
52471;DHT22;38382;53.160;7.026;2024-02-23T00:58:34;4.90;99.90
52471;DHT22;38382;53.160;7.026;2024-02-23T01:01:00;4.90;99.90
52471;DHT22;38382;53.160;7.026;2024-02-23T01:03:26;4.90;99.90
52471;DHT22;38382;53.160;7.026;2024-02-23T01:05:52;4.90;99.90
52471;DHT22;38382;53.160;7.026;2024-02-23T01:08:18;4.80;99.90
52471;DHT22;38382;53.160;7.026;2024-02-23T01:10:44;4.80;99.90
52471;DHT22;38382;53.160;7.026;2024-02-23T01:13:10;4.80;99.90
52471;DHT22;38382;53.160;7.026;2024-02-23T01:15:36;5.20;99.90
52471;DHT22;38382;53.160;7.026;2024-02-23T01:18:03;4.80;99.90
52471;DHT22;38382;53.160;7.026;2024-02-23T01:20:28;4.60;99.90
52471;DHT22;38382;53.160;7.026;2024-02-23T01:22:54;4.60;99.90
52471;DHT22;38382;53.160;7.026;2024-02-23T01:25:20;4.60;99.90
52471;DHT22;38382;53.160;7.026;2024-02-23T01:27:46;4.60;99.90
52471;DHT22;38382;53.160;7.026;2024-02-23T01:30:11;4.70;99.90
52471;DHT22;38382;53.160;7.026;2024-02-23T01:32:37;4.50;99.90
52471;DHT22;38382;53.160;7.026;2024-02-23T01:35:05;4.40;99.90
52471;DHT22;38382;53.160;7.026;2024-02-23T01:37:31;4.30;99.90
52471;DHT22;38382;53.160;7.026;2024-02-23T01:39:57;4.30;99.90
52471;DHT22;38382;53.160;7.026;2024-02-23T01:42:23;4.70;99.90
52471;DHT22;38382;53.160;7.026;2024-02-23T01:44:49;4.10;99.90
52471;DHT22;38382;53.160;7.026;2024-02-23T01:47:15;4.00;99.90
52471;DHT22;38382;53.160;7.026;2024-02-23T01:49:41;4.00;99.90
52471;DHT22;38382;53.160;7.026;2024-02-23T01:52:08;4.20;99.90
52471;DHT22;38382;53.160;7.026;2024-02-23T01:54:33;4.00;99.90
52471;DHT22;38382;53.160;7.026;2024-02-23T01:57:00;4.50;99.90
52471;DHT22;38382;53.160;7.026;2024-02-23T01:59:26;4.00;99.90
52471;DHT22;38382;53.160;7.026;2024-02-23T02:01:53;4.50;99.90
52471;DHT22;38382;53.160;7.026;2024-02-23T02:04:19;4.00;99.90
52471;DHT22;38382;53.160;7.026;2024-02-23T02:06:48;3.80;99.90
52471;DHT22;38382;53.160;7.026;2024-02-23T02:09:14;4.30;99.90
52471;DHT22;38382;53.160;7.026;2024-02-23T02:11:47;3.90;99.90
52471;DHT22;38382;53.160;7.026;2024-02-23T02:14:14;3.80;99.90
52471;DHT22;38382;53.160;7.026;2024-02-23T02:16:40;4.00;99.90
52471;DHT22;38382;53.160;7.026;2024-02-23T02:19:06;3.90;99.90
52471;DHT22;38382;53.160;7.026;2024-02-23T02:21:33;3.90;99.90
52471;DHT22;38382;53.160;7.026;2024-02-23T02:23:59;4.00;99.90
52471;DHT22;38382;53.160;7.026;2024-02-23T02:26:24;4.00;99.90
52471;DHT22;38382;53.160;7.026;2024-02-23T02:28:50;3.90;99.90
52471;DHT22;38382;53.160;7.026;2024-02-23T02:31:16;3.90;99.90
52471;DHT22;38382;53.160;7.026;2024-02-23T02:33:42;4.00;99.90
52471;DHT22;38382;53.160;7.026;2024-02-23T02:36:07;4.80;99.90
52471;DHT22;38382;53.160;7.026;2024-02-23T02:38:33;4.10;99.90
52471;DHT22;38382;53.160;7.026;2024-02-23T02:40:59;4.10;99.90
52471;DHT22;38382;53.160;7.026;2024-02-23T02:43:28;4.10;99.90
52471;DHT22;38382;53.160;7.026;2024-02-23T02:45:53;4.20;99.90
52471;DHT22;38382;53.160;7.026;2024-02-23T02:48:19;4.20;99.90
52471;DHT22;38382;53.160;7.026;2024-02-23T02:50:45;4.70;99.90
52471;DHT22;38382;53.160;7.026;2024-02-23T02:53:11;4.30;99.90
52471;DHT22;38382;53.160;7.026;2024-02-23T02:55:40;4.80;99.90
52471;DHT22;38382;53.160;7.026;2024-02-23T02:58:06;4.90;99.90
52471;DHT22;38382;53.160;7.026;2024-02-23T03:00:32;4.40;99.90
52471;DHT22;38382;53.160;7.026;2024-02-23T03:02:58;4.40;99.90
52471;DHT22;38382;53.160;7.026;2024-02-23T03:05:24;4.40;99.90
52471;DHT22;38382;53.160;7.026;2024-02-23T03:07:49;4.60;99.90
52471;DHT22;38382;53.160;7.026;2024-02-23T03:10:15;4.40;99.90
52471;DHT22;38382;53.160;7.026;2024-02-23T03:12:41;4.40;99.90
52471;DHT22;38382;53.160;7.026;2024-02-23T03:15:07;4.70;99.90
52471;DHT22;38382;53.160;7.026;2024-02-23T03:17:35;4.40;99.90
52471;DHT22;38382;53.160;7.026;2024-02-23T03:20:01;4.50;99.90
52471;DHT22;38382;53.160;7.026;2024-02-23T03:22:27;5.20;99.90
52471;DHT22;38382;53.160;7.026;2024-02-23T03:24:53;5.10;99.90
52471;DHT22;38382;53.160;7.026;2024-02-23T03:27:19;5.10;99.90
52471;DHT22;38382;53.160;7.026;2024-02-23T03:29:45;4.70;99.90
52471;DHT22;38382;53.160;7.026;2024-02-23T03:32:10;4.50;99.90
52471;DHT22;38382;53.160;7.026;2024-02-23T03:34:36;4.40;99.90
52471;DHT22;38382;53.160;7.026;2024-02-23T03:37:02;4.50;99.90
52471;DHT22;38382;53.160;7.026;2024-02-23T03:39:28;4.40;99.90
52471;DHT22;38382;53.160;7.026;2024-02-23T03:41:54;4.70;99.90
52471;DHT22;38382;53.160;7.026;2024-02-23T03:44:20;4.70;99.90
52471;DHT22;38382;53.160;7.026;2024-02-23T03:46:45;4.50;99.90
52471;DHT22;38382;53.160;7.026;2024-02-23T03:49:11;4.50;99.90
52471;DHT22;38382;53.160;7.026;2024-02-23T03:51:37;4.50;99.90
52471;DHT22;38382;53.160;7.026;2024-02-23T03:54:05;4.90;99.90
52471;DHT22;38382;53.160;7.026;2024-02-23T03:56:38;4.40;99.90
52471;DHT22;38382;53.160;7.026;2024-02-23T03:59:05;4.40;99.90
52471;DHT22;38382;53.160;7.026;2024-02-23T04:01:31;4.70;99.90
52471;DHT22;38382;53.160;7.026;2024-02-23T04:03:57;4.40;99.90
52471;DHT22;38382;53.160;7.026;2024-02-23T04:06:22;4.40;99.90
52471;DHT22;38382;53.160;7.026;2024-02-23T04:08:48;4.40;99.90
52471;DHT22;38382;53.160;7.026;2024-02-23T04:11:14;5.10;99.90
52471;DHT22;38382;53.160;7.026;2024-02-23T04:13:39;4.40;99.90
52471;DHT22;38382;53.160;7.026;2024-02-23T04:16:05;4.40;99.90
52471;DHT22;38382;53.160;7.026;2024-02-23T04:18:31;4.40;99.90
52471;DHT22;38382;53.160;7.026;2024-02-23T04:20:57;5.20;99.90
52471;DHT22;38382;53.160;7.026;2024-02-23T04:23:23;4.40;99.90
52471;DHT22;38382;53.160;7.026;2024-02-23T04:25:49;5.00;99.90
52471;DHT22;38382;53.160;7.026;2024-02-23T04:28:16;4.50;99.90
52471;DHT22;38382;53.160;7.026;2024-02-23T04:30:43;4.50;99.90
52471;DHT22;38382;53.160;7.026;2024-02-23T04:33:08;4.40;99.90
52471;DHT22;38382;53.160;7.026;2024-02-23T04:35:34;4.50;99.90
52471;DHT22;38382;53.160;7.026;2024-02-23T04:38:00;4.50;99.90
52471;DHT22;38382;53.160;7.026;2024-02-23T04:40:25;4.60;99.90
52471;DHT22;38382;53.160;7.026;2024-02-23T04:42:51;4.40;99.90
52471;DHT22;38382;53.160;7.026;2024-02-23T04:45:17;4.50;99.90
52471;DHT22;38382;53.160;7.026;2024-02-23T04:47:42;4.40;99.90
52471;DHT22;38382;53.160;7.026;2024-02-23T04:50:09;4.40;99.90
52471;DHT22;38382;53.160;7.026;2024-02-23T04:52:34;4.40;99.90
52471;DHT22;38382;53.160;7.026;2024-02-23T04:55:00;4.70;99.90
52471;DHT22;38382;53.160;7.026;2024-02-23T04:57:26;4.50;99.90
52471;DHT22;38382;53.160;7.026;2024-02-23T04:59:52;4.40;99.90
52471;DHT22;38382;53.160;7.026;2024-02-23T05:02:18;4.40;99.90
52471;DHT22;38382;53.160;7.026;2024-02-23T05:07:12;4.30;99.90
52471;DHT22;38382;53.160;7.026;2024-02-23T05:09:37;4.30;99.90
52471;DHT22;38382;53.160;7.026;2024-02-23T05:12:04;4.40;99.90
52471;DHT22;38382;53.160;7.026;2024-02-23T05:14:30;4.20;99.90
52471;DHT22;38382;53.160;7.026;2024-02-23T05:16:55;4.30;99.90
52471;DHT22;38382;53.160;7.026;2024-02-23T05:19:21;4.10;99.90
52471;DHT22;38382;53.160;7.026;2024-02-23T05:21:47;4.10;99.90
52471;DHT22;38382;53.160;7.026;2024-02-23T05:24:13;4.90;99.90
52471;DHT22;38382;53.160;7.026;2024-02-23T05:26:38;4.10;99.90
52471;DHT22;38382;53.160;7.026;2024-02-23T05:29:04;4.10;99.90
52471;DHT22;38382;53.160;7.026;2024-02-23T05:31:48;4.00;99.90
52471;DHT22;38382;53.160;7.026;2024-02-23T05:34:14;4.10;99.90
52471;DHT22;38382;53.160;7.026;2024-02-23T05:36:40;4.00;99.90
52471;DHT22;38382;53.160;7.026;2024-02-23T05:39:06;4.10;99.90
52471;DHT22;38382;53.160;7.026;2024-02-23T05:41:33;4.10;99.90
52471;DHT22;38382;53.160;7.026;2024-02-23T05:43:59;4.30;99.90
52471;DHT22;38382;53.160;7.026;2024-02-23T05:46:25;4.00;99.90
52471;DHT22;38382;53.160;7.026;2024-02-23T05:48:50;5.60;99.90
52471;DHT22;38382;53.160;7.026;2024-02-23T05:51:16;4.00;99.90
52471;DHT22;38382;53.160;7.026;2024-02-23T05:53:42;4.70;99.90
52471;DHT22;38382;53.160;7.026;2024-02-23T05:56:07;4.10;99.90
52471;DHT22;38382;53.160;7.026;2024-02-23T05:58:33;4.30;99.90
52471;DHT22;38382;53.160;7.026;2024-02-23T06:00:59;4.10;99.90
52471;DHT22;38382;53.160;7.026;2024-02-23T06:03:24;4.10;99.90
52471;DHT22;38382;53.160;7.026;2024-02-23T06:05:50;4.20;99.90
52471;DHT22;38382;53.160;7.026;2024-02-23T06:08:16;4.20;99.90
52471;DHT22;38382;53.160;7.026;2024-02-23T06:10:42;4.10;99.90
52471;DHT22;38382;53.160;7.026;2024-02-23T06:13:09;4.10;99.90
52471;DHT22;38382;53.160;7.026;2024-02-23T06:15:35;4.60;99.90
52471;DHT22;38382;53.160;7.026;2024-02-23T06:18:01;4.50;99.90
52471;DHT22;38382;53.160;7.026;2024-02-23T06:20:26;4.30;99.90
52471;DHT22;38382;53.160;7.026;2024-02-23T06:22:52;4.30;99.90
52471;DHT22;38382;53.160;7.026;2024-02-23T06:25:18;5.10;99.90
52471;DHT22;38382;53.160;7.026;2024-02-23T06:27:44;4.40;99.90
52471;DHT22;38382;53.160;7.026;2024-02-23T06:30:09;4.50;99.90
52471;DHT22;38382;53.160;7.026;2024-02-23T06:32:36;4.40;99.90
52471;DHT22;38382;53.160;7.026;2024-02-23T06:35:02;4.40;99.90
52471;DHT22;38382;53.160;7.026;2024-02-23T06:37:28;4.40;99.90
52471;DHT22;38382;53.160;7.026;2024-02-23T06:39:54;4.40;99.90
52471;DHT22;38382;53.160;7.026;2024-02-23T06:42:23;4.80;99.90
52471;DHT22;38382;53.160;7.026;2024-02-23T06:44:49;4.40;99.90
52471;DHT22;38382;53.160;7.026;2024-02-23T06:47:15;4.40;99.90
52471;DHT22;38382;53.160;7.026;2024-02-23T06:49:42;4.70;99.90
52471;DHT22;38382;53.160;7.026;2024-02-23T06:52:08;4.60;99.90
52471;DHT22;38382;53.160;7.026;2024-02-23T06:54:34;4.30;99.90
52471;DHT22;38382;53.160;7.026;2024-02-23T06:57:00;4.70;99.90
52471;DHT22;38382;53.160;7.026;2024-02-23T06:59:26;4.80;99.90
52471;DHT22;38382;53.160;7.026;2024-02-23T07:01:52;4.50;99.90
52471;DHT22;38382;53.160;7.026;2024-02-23T07:04:18;4.50;99.90
52471;DHT22;38382;53.160;7.026;2024-02-23T07:06:44;4.40;99.90
52471;DHT22;38382;53.160;7.026;2024-02-23T07:09:10;4.50;99.90
52471;DHT22;38382;53.160;7.026;2024-02-23T07:11:37;5.10;99.90
52471;DHT22;38382;53.160;7.026;2024-02-23T07:14:03;4.30;99.90
52471;DHT22;38382;53.160;7.026;2024-02-23T07:16:30;4.30;99.90
52471;DHT22;38382;53.160;7.026;2024-02-23T07:18:55;5.00;99.90
52471;DHT22;38382;53.160;7.026;2024-02-23T07:21:22;5.70;99.90
52471;DHT22;38382;53.160;7.026;2024-02-23T07:23:48;4.80;99.90
52471;DHT22;38382;53.160;7.026;2024-02-23T07:26:14;5.40;99.90
52471;DHT22;38382;53.160;7.026;2024-02-23T07:28:40;5.00;99.90
52471;DHT22;38382;53.160;7.026;2024-02-23T07:31:05;4.50;99.90
52471;DHT22;38382;53.160;7.026;2024-02-23T07:33:31;4.50;99.90
52471;DHT22;38382;53.160;7.026;2024-02-23T07:35:57;4.60;99.90
52471;DHT22;38382;53.160;7.026;2024-02-23T07:38:23;4.70;99.90
52471;DHT22;38382;53.160;7.026;2024-02-23T07:40:49;4.70;99.90
52471;DHT22;38382;53.160;7.026;2024-02-23T07:43:14;4.90;99.90
52471;DHT22;38382;53.160;7.026;2024-02-23T07:45:40;4.70;99.90
52471;DHT22;38382;53.160;7.026;2024-02-23T07:48:06;4.80;99.90
52471;DHT22;38382;53.160;7.026;2024-02-23T07:50:32;4.70;99.90
52471;DHT22;38382;53.160;7.026;2024-02-23T07:53:00;4.80;99.90
52471;DHT22;38382;53.160;7.026;2024-02-23T07:55:25;4.90;99.90
52471;DHT22;38382;53.160;7.026;2024-02-23T07:57:59;4.90;99.90
52471;DHT22;38382;53.160;7.026;2024-02-23T08:00:27;4.90;99.90
52471;DHT22;38382;53.160;7.026;2024-02-23T08:03:01;5.00;99.90
52471;DHT22;38382;53.160;7.026;2024-02-23T08:05:27;5.00;99.90
52471;DHT22;38382;53.160;7.026;2024-02-23T08:08:11;5.00;99.90
52471;DHT22;38382;53.160;7.026;2024-02-23T08:10:37;5.00;99.90
52471;DHT22;38382;53.160;7.026;2024-02-23T08:13:19;5.10;99.90
52471;DHT22;38382;53.160;7.026;2024-02-23T08:15:48;5.10;99.90
52471;DHT22;38382;53.160;7.026;2024-02-23T08:18:14;5.20;99.90
52471;DHT22;38382;53.160;7.026;2024-02-23T08:20:41;5.20;99.90
52471;DHT22;38382;53.160;7.026;2024-02-23T08:23:17;5.20;99.90
52471;DHT22;38382;53.160;7.026;2024-02-23T08:25:47;5.20;99.90
52471;DHT22;38382;53.160;7.026;2024-02-23T08:28:13;5.30;99.90
52471;DHT22;38382;53.160;7.026;2024-02-23T08:30:38;5.30;99.90
52471;DHT22;38382;53.160;7.026;2024-02-23T08:33:04;5.70;99.90
52471;DHT22;38382;53.160;7.026;2024-02-23T08:35:31;5.40;99.90
52471;DHT22;38382;53.160;7.026;2024-02-23T08:37:57;5.40;99.90
52471;DHT22;38382;53.160;7.026;2024-02-23T08:40:23;5.40;99.90
52471;DHT22;38382;53.160;7.026;2024-02-23T08:42:52;5.70;99.90
52471;DHT22;38382;53.160;7.026;2024-02-23T08:45:18;5.40;99.90
52471;DHT22;38382;53.160;7.026;2024-02-23T08:47:43;5.40;99.90
52471;DHT22;38382;53.160;7.026;2024-02-23T08:50:10;5.50;99.90
52471;DHT22;38382;53.160;7.026;2024-02-23T08:52:36;5.50;99.90
52471;DHT22;38382;53.160;7.026;2024-02-23T08:55:02;5.60;99.90
52471;DHT22;38382;53.160;7.026;2024-02-23T08:57:28;5.60;99.90
52471;DHT22;38382;53.160;7.026;2024-02-23T08:59:53;5.90;99.90
52471;DHT22;38382;53.160;7.026;2024-02-23T09:02:20;5.70;99.90
52471;DHT22;38382;53.160;7.026;2024-02-23T09:04:46;6.50;99.90
52471;DHT22;38382;53.160;7.026;2024-02-23T09:07:12;6.00;99.90
52471;DHT22;38382;53.160;7.026;2024-02-23T09:09:38;5.80;99.90
52471;DHT22;38382;53.160;7.026;2024-02-23T09:12:04;6.10;99.90
52471;DHT22;38382;53.160;7.026;2024-02-23T09:14:32;5.90;99.90
52471;DHT22;38382;53.160;7.026;2024-02-23T09:16:58;5.90;99.90
52471;DHT22;38382;53.160;7.026;2024-02-23T09:19:24;6.10;99.90
52471;DHT22;38382;53.160;7.026;2024-02-23T09:21:50;6.00;99.90
52471;DHT22;38382;53.160;7.026;2024-02-23T09:24:15;6.00;99.90
52471;DHT22;38382;53.160;7.026;2024-02-23T09:26:41;6.00;99.90
52471;DHT22;38382;53.160;7.026;2024-02-23T09:29:07;6.00;99.90
52471;DHT22;38382;53.160;7.026;2024-02-23T09:31:33;6.10;99.90
52471;DHT22;38382;53.160;7.026;2024-02-23T09:33:59;6.10;99.90
52471;DHT22;38382;53.160;7.026;2024-02-23T09:36:24;6.20;99.90
52471;DHT22;38382;53.160;7.026;2024-02-23T09:38:50;6.20;99.90
52471;DHT22;38382;53.160;7.026;2024-02-23T09:41:21;6.50;99.90
52471;DHT22;38382;53.160;7.026;2024-02-23T09:43:47;6.40;99.90
52471;DHT22;38382;53.160;7.026;2024-02-23T09:46:15;6.50;99.90
52471;DHT22;38382;53.160;7.026;2024-02-23T09:48:45;6.70;99.90
52471;DHT22;38382;53.160;7.026;2024-02-23T09:51:15;6.80;99.90
52471;DHT22;38382;53.160;7.026;2024-02-23T09:53:42;6.90;99.90
52471;DHT22;38382;53.160;7.026;2024-02-23T09:56:08;7.00;99.90
52471;DHT22;38382;53.160;7.026;2024-02-23T09:58:37;7.10;99.90
52471;DHT22;38382;53.160;7.026;2024-02-23T10:01:04;7.10;99.90
52471;DHT22;38382;53.160;7.026;2024-02-23T10:03:30;7.10;99.90
52471;DHT22;38382;53.160;7.026;2024-02-23T10:06:00;7.10;99.90
52471;DHT22;38382;53.160;7.026;2024-02-23T10:08:28;7.20;99.90
52471;DHT22;38382;53.160;7.026;2024-02-23T10:10:55;7.10;99.90
52471;DHT22;38382;53.160;7.026;2024-02-23T10:13:23;7.00;99.90
52471;DHT22;38382;53.160;7.026;2024-02-23T10:15:52;7.00;99.90
52471;DHT22;38382;53.160;7.026;2024-02-23T10:18:19;7.00;99.90
52471;DHT22;38382;53.160;7.026;2024-02-23T10:20:48;7.00;99.90
52471;DHT22;38382;53.160;7.026;2024-02-23T10:23:16;7.00;99.90
52471;DHT22;38382;53.160;7.026;2024-02-23T10:25:41;7.00;99.90
52471;DHT22;38382;53.160;7.026;2024-02-23T10:28:07;7.10;99.90
52471;DHT22;38382;53.160;7.026;2024-02-23T10:30:36;7.10;99.90
52471;DHT22;38382;53.160;7.026;2024-02-23T10:33:05;7.20;99.90
52471;DHT22;38382;53.160;7.026;2024-02-23T10:35:32;7.30;99.90
52471;DHT22;38382;53.160;7.026;2024-02-23T10:38:01;7.30;99.90
52471;DHT22;38382;53.160;7.026;2024-02-23T10:40:30;7.30;99.90
52471;DHT22;38382;53.160;7.026;2024-02-23T10:42:59;7.30;99.90
52471;DHT22;38382;53.160;7.026;2024-02-23T10:45:28;7.30;99.90
52471;DHT22;38382;53.160;7.026;2024-02-23T10:47:55;7.30;99.90
52471;DHT22;38382;53.160;7.026;2024-02-23T10:50:22;7.30;99.90
52471;DHT22;38382;53.160;7.026;2024-02-23T10:52:49;7.20;99.90
52471;DHT22;38382;53.160;7.026;2024-02-23T10:55:15;7.20;99.90
52471;DHT22;38382;53.160;7.026;2024-02-23T10:57:42;7.20;99.90
52471;DHT22;38382;53.160;7.026;2024-02-23T11:00:09;7.30;99.90
52471;DHT22;38382;53.160;7.026;2024-02-23T11:02:55;7.30;99.90
52471;DHT22;38382;53.160;7.026;2024-02-23T11:05:22;7.30;99.90
52471;DHT22;38382;53.160;7.026;2024-02-23T11:07:48;7.30;99.90
52471;DHT22;38382;53.160;7.026;2024-02-23T11:10:15;7.30;99.90
52471;DHT22;38382;53.160;7.026;2024-02-23T11:12:41;7.30;99.90
52471;DHT22;38382;53.160;7.026;2024-02-23T11:15:07;7.20;99.90
52471;DHT22;38382;53.160;7.026;2024-02-23T11:17:35;7.20;99.90
52471;DHT22;38382;53.160;7.026;2024-02-23T11:20:04;7.80;99.90
52471;DHT22;38382;53.160;7.026;2024-02-23T11:22:36;7.10;99.90
52471;DHT22;38382;53.160;7.026;2024-02-23T11:25:04;7.10;99.90
52471;DHT22;38382;53.160;7.026;2024-02-23T11:27:32;7.10;99.90
52471;DHT22;38382;53.160;7.026;2024-02-23T11:30:06;7.00;99.90
52471;DHT22;38382;53.160;7.026;2024-02-23T11:32:49;7.10;99.90
52471;DHT22;38382;53.160;7.026;2024-02-23T11:35:19;7.10;99.90
52471;DHT22;38382;53.160;7.026;2024-02-23T11:37:52;7.10;99.90
52471;DHT22;38382;53.160;7.026;2024-02-23T11:40:30;7.10;99.90
52471;DHT22;38382;53.160;7.026;2024-02-23T11:42:56;7.30;99.90
52471;DHT22;38382;53.160;7.026;2024-02-23T11:45:25;7.00;99.90
52471;DHT22;38382;53.160;7.026;2024-02-23T11:47:53;7.10;99.90
52471;DHT22;38382;53.160;7.026;2024-02-23T11:50:19;7.30;99.90
52471;DHT22;38382;53.160;7.026;2024-02-23T11:52:47;7.10;99.90
52471;DHT22;38382;53.160;7.026;2024-02-23T11:55:20;7.20;99.90
52471;DHT22;38382;53.160;7.026;2024-02-23T11:57:50;7.20;99.90
52471;DHT22;38382;53.160;7.026;2024-02-23T12:00:16;7.30;99.90
52471;DHT22;38382;53.160;7.026;2024-02-23T12:02:43;7.30;99.90
52471;DHT22;38382;53.160;7.026;2024-02-23T12:05:11;7.30;99.90
52471;DHT22;38382;53.160;7.026;2024-02-23T12:07:37;7.30;99.90
52471;DHT22;38382;53.160;7.026;2024-02-23T12:10:03;7.50;99.90
52471;DHT22;38382;53.160;7.026;2024-02-23T12:12:30;7.30;99.90
52471;DHT22;38382;53.160;7.026;2024-02-23T12:14:56;7.20;99.90
52471;DHT22;38382;53.160;7.026;2024-02-23T12:17:22;7.20;99.90
52471;DHT22;38382;53.160;7.026;2024-02-23T12:19:48;7.10;99.90
52471;DHT22;38382;53.160;7.026;2024-02-23T12:22:14;7.10;99.90
52471;DHT22;38382;53.160;7.026;2024-02-23T12:24:41;7.00;99.90
52471;DHT22;38382;53.160;7.026;2024-02-23T12:27:07;7.00;99.90
52471;DHT22;38382;53.160;7.026;2024-02-23T12:29:33;6.90;99.90
52471;DHT22;38382;53.160;7.026;2024-02-23T12:32:05;6.90;99.90
52471;DHT22;38382;53.160;7.026;2024-02-23T12:34:32;6.80;99.90
52471;DHT22;38382;53.160;7.026;2024-02-23T12:36:58;6.80;99.90
52471;DHT22;38382;53.160;7.026;2024-02-23T12:39:23;6.70;99.90
52471;DHT22;38382;53.160;7.026;2024-02-23T12:41:49;6.60;99.90
52471;DHT22;38382;53.160;7.026;2024-02-23T12:44:16;6.60;99.90
52471;DHT22;38382;53.160;7.026;2024-02-23T12:46:42;6.60;99.90
52471;DHT22;38382;53.160;7.026;2024-02-23T12:49:07;6.60;99.90
52471;DHT22;38382;53.160;7.026;2024-02-23T12:51:33;6.60;99.90
52471;DHT22;38382;53.160;7.026;2024-02-23T12:54:00;6.70;99.90
52471;DHT22;38382;53.160;7.026;2024-02-23T12:56:25;6.50;99.90
52471;DHT22;38382;53.160;7.026;2024-02-23T12:58:51;6.70;99.90
52471;DHT22;38382;53.160;7.026;2024-02-23T13:01:19;6.50;99.90
52471;DHT22;38382;53.160;7.026;2024-02-23T13:03:45;6.50;99.90
52471;DHT22;38382;53.160;7.026;2024-02-23T13:06:10;6.50;99.90
52471;DHT22;38382;53.160;7.026;2024-02-23T13:08:36;6.50;99.90
52471;DHT22;38382;53.160;7.026;2024-02-23T13:11:04;7.10;99.90
52471;DHT22;38382;53.160;7.026;2024-02-23T13:13:30;6.50;99.90
52471;DHT22;38382;53.160;7.026;2024-02-23T13:15:56;6.50;99.90
52471;DHT22;38382;53.160;7.026;2024-02-23T13:18:22;6.50;99.90
52471;DHT22;38382;53.160;7.026;2024-02-23T13:20:48;6.50;99.90
52471;DHT22;38382;53.160;7.026;2024-02-23T13:23:14;6.50;99.90
52471;DHT22;38382;53.160;7.026;2024-02-23T13:25:41;6.60;99.90
52471;DHT22;38382;53.160;7.026;2024-02-23T13:28:08;6.50;99.90
52471;DHT22;38382;53.160;7.026;2024-02-23T13:30:35;6.50;99.90
52471;DHT22;38382;53.160;7.026;2024-02-23T13:33:02;6.50;99.90
52471;DHT22;38382;53.160;7.026;2024-02-23T13:35:28;6.60;99.90
52471;DHT22;38382;53.160;7.026;2024-02-23T13:37:54;6.60;99.90
52471;DHT22;38382;53.160;7.026;2024-02-23T13:40:20;6.90;99.90
52471;DHT22;38382;53.160;7.026;2024-02-23T13:42:47;6.70;99.90
52471;DHT22;38382;53.160;7.026;2024-02-23T13:45:16;6.70;99.90
52471;DHT22;38382;53.160;7.026;2024-02-23T13:47:43;6.70;99.90
52471;DHT22;38382;53.160;7.026;2024-02-23T13:50:10;6.90;99.90
52471;DHT22;38382;53.160;7.026;2024-02-23T13:52:36;6.70;99.90
52471;DHT22;38382;53.160;7.026;2024-02-23T13:55:02;6.70;99.90
52471;DHT22;38382;53.160;7.026;2024-02-23T13:57:28;6.80;99.90
52471;DHT22;38382;53.160;7.026;2024-02-23T13:59:54;6.80;99.90
52471;DHT22;38382;53.160;7.026;2024-02-23T14:02:25;6.90;99.90
52471;DHT22;38382;53.160;7.026;2024-02-23T14:04:52;7.00;99.90
52471;DHT22;38382;53.160;7.026;2024-02-23T14:07:18;7.00;99.90
52471;DHT22;38382;53.160;7.026;2024-02-23T14:09:44;6.90;99.90
52471;DHT22;38382;53.160;7.026;2024-02-23T14:12:09;7.00;99.90
52471;DHT22;38382;53.160;7.026;2024-02-23T14:14:35;6.80;99.90
52471;DHT22;38382;53.160;7.026;2024-02-23T14:17:01;6.80;99.90
52471;DHT22;38382;53.160;7.026;2024-02-23T14:19:26;6.80;99.90
52471;DHT22;38382;53.160;7.026;2024-02-23T14:21:52;6.80;99.90
52471;DHT22;38382;53.160;7.026;2024-02-23T14:24:18;6.90;99.90
52471;DHT22;38382;53.160;7.026;2024-02-23T14:26:44;7.00;99.90
52471;DHT22;38382;53.160;7.026;2024-02-23T14:29:09;7.30;99.90
52471;DHT22;38382;53.160;7.026;2024-02-23T14:31:35;7.30;99.90
52471;DHT22;38382;53.160;7.026;2024-02-23T14:34:01;7.50;99.90
52471;DHT22;38382;53.160;7.026;2024-02-23T14:36:27;7.60;99.90
52471;DHT22;38382;53.160;7.026;2024-02-23T14:38:52;7.50;99.90
52471;DHT22;38382;53.160;7.026;2024-02-23T14:41:18;7.60;99.90
52471;DHT22;38382;53.160;7.026;2024-02-23T14:43:44;7.90;99.90
52471;DHT22;38382;53.160;7.026;2024-02-23T14:46:10;8.00;99.90
52471;DHT22;38382;53.160;7.026;2024-02-23T14:48:35;7.90;99.90
52471;DHT22;38382;53.160;7.026;2024-02-23T14:51:01;7.80;99.90
52471;DHT22;38382;53.160;7.026;2024-02-23T14:53:30;7.60;99.90
52471;DHT22;38382;53.160;7.026;2024-02-23T14:55:55;7.50;99.90
52471;DHT22;38382;53.160;7.026;2024-02-23T14:58:21;7.50;99.90
52471;DHT22;38382;53.160;7.026;2024-02-23T15:00:47;7.50;99.90
52471;DHT22;38382;53.160;7.026;2024-02-23T15:03:13;7.40;99.90
52471;DHT22;38382;53.160;7.026;2024-02-23T15:05:39;7.40;99.90
52471;DHT22;38382;53.160;7.026;2024-02-23T15:08:06;7.30;99.90
52471;DHT22;38382;53.160;7.026;2024-02-23T15:10:33;7.30;99.90
52471;DHT22;38382;53.160;7.026;2024-02-23T15:12:59;7.40;99.90
52471;DHT22;38382;53.160;7.026;2024-02-23T15:15:25;7.50;99.90
52471;DHT22;38382;53.160;7.026;2024-02-23T15:17:51;7.50;99.90
52471;DHT22;38382;53.160;7.026;2024-02-23T15:20:18;7.50;99.90
52471;DHT22;38382;53.160;7.026;2024-02-23T15:22:44;7.50;99.90
52471;DHT22;38382;53.160;7.026;2024-02-23T15:25:12;7.50;99.90
52471;DHT22;38382;53.160;7.026;2024-02-23T15:27:38;7.40;99.90
52471;DHT22;38382;53.160;7.026;2024-02-23T15:30:07;7.40;99.90
52471;DHT22;38382;53.160;7.026;2024-02-23T15:32:34;7.30;99.90
52471;DHT22;38382;53.160;7.026;2024-02-23T15:35:00;7.30;99.90
52471;DHT22;38382;53.160;7.026;2024-02-23T15:37:27;7.20;99.90
52471;DHT22;38382;53.160;7.026;2024-02-23T15:39:53;7.30;99.90
52471;DHT22;38382;53.160;7.026;2024-02-23T15:42:19;7.30;99.90